Time;durP1;ratioP1;P1;durP2;ratioP2;P2;SDS_P1;SDS_P2;PMS_P1;PMS_P2;Temp;Humidity;BMP_temperature;BMP_pressure;BME280_temperature;BME280_humidity;BME280_pressure;Samples;Min_cycle;Max_cycle;Signal;HPM_P1;HPM_P2
2022/11/18 00:02:20;;;;;;;34.37;15.77;;;;;;;;;;5034395;28;20669;-69
2022/11/18 00:04:46;;;;;;;40.30;17.83;;;;;;;;;;5034393;28;20175;-69
2022/11/18 00:07:11;;;;;;;38.87;17.97;;;;;;;;;;5034817;28;20183;-69
2022/11/18 00:09:37;;;;;;;58.63;24.97;;;;;;;;;;5034199;28;20195;-69
2022/11/18 00:14:48;;;;;;;46.30;19.87;;;;;;;;;;5034090;28;20267;-69
2022/11/18 00:17:14;;;;;;;49.30;19.60;;;;;;;;;;5032626;28;20289;-69
2022/11/18 00:19:40;;;;;;;68.40;27.33;;;;;;;;;;5034185;28;20277;-69
2022/11/18 00:22:07;;;;;;;46.67;20.67;;;;;;;;;;5034312;28;20175;-69
2022/11/18 00:24:33;;;;;;;26.60;15.37;;;;;;;;;;5032928;28;20186;-69
2022/11/18 00:26:59;;;;;;;25.93;13.60;;;;;;;;;;5033039;28;20183;-69
2022/11/18 00:29:27;;;;;;;15.57;10.53;;;;;;;;;;5034368;28;20571;-69
2022/11/18 00:31:53;;;;;;;15.33;7.27;;;;;;;;;;5032564;28;20191;-69
2022/11/18 00:34:19;;;;;;;9.27;5.87;;;;;;;;;;5032562;28;20241;-69
2022/11/18 00:36:45;;;;;;;10.83;6.30;;;;;;;;;;5034451;28;20562;-69
2022/11/18 00:39:12;;;;;;;12.77;5.67;;;;;;;;;;5032625;28;20309;-69
2022/11/18 00:44:22;;;;;;;11.10;7.87;;;;;;;;;;5033630;28;20193;-68
2022/11/18 00:46:48;;;;;;;12.50;8.53;;;;;;;;;;5033207;28;20648;-67
2022/11/18 00:49:14;;;;;;;11.70;8.27;;;;;;;;;;5031942;28;20182;-68
2022/11/18 00:51:40;;;;;;;8.33;7.43;;;;;;;;;;5033109;28;20195;-68
2022/11/18 00:54:06;;;;;;;12.67;7.80;;;;;;;;;;5033336;28;20190;-68
2022/11/18 00:56:32;;;;;;;10.53;7.40;;;;;;;;;;5033023;28;20202;-68
2022/11/18 00:58:58;;;;;;;11.73;6.27;;;;;;;;;;5033288;28;20265;-67
2022/11/18 01:01:24;;;;;;;10.63;5.80;;;;;;;;;;5031642;28;20171;-68
2022/11/18 01:03:50;;;;;;;8.13;4.50;;;;;;;;;;5033103;28;20183;-68
2022/11/18 01:06:16;;;;;;;6.93;4.37;;;;;;;;;;5033040;28;20277;-67
2022/11/18 01:08:42;;;;;;;8.27;4.77;;;;;;;;;;5032377;28;20191;-67
2022/11/18 01:13:53;;;;;;;9.27;4.40;;;;;;;;;;5033551;28;20253;-67
2022/11/18 01:16:20;;;;;;;7.30;3.80;;;;;;;;;;5033042;28;20201;-67
2022/11/18 01:18:46;;;;;;;7.67;3.87;;;;;;;;;;5031560;28;20184;-67
2022/11/18 01:21:12;;;;;;;14.10;4.10;;;;;;;;;;5033236;28;20658;-67
2022/11/18 01:23:38;;;;;;;6.77;3.33;;;;;;;;;;5032774;28;20282;-67
2022/11/18 01:26:05;;;;;;;8.90;3.50;;;;;;;;;;5031539;28;20214;-67
2022/11/18 01:28:31;;;;;;;7.27;3.43;;;;;;;;;;5032750;28;20221;-67
2022/11/18 01:31:02;;;;;;;7.10;4.03;;;;;;;;;;5031538;28;20179;-67
2022/11/18 01:33:28;;;;;;;7.83;4.57;;;;;;;;;;5032761;28;20192;-67
2022/11/18 01:35:54;;;;;;;9.47;5.80;;;;;;;;;;5032641;28;20289;-66
2022/11/18 01:38:20;;;;;;;8.43;4.67;;;;;;;;;;5034120;28;20175;-66
2022/11/18 01:40:46;;;;;;;9.60;4.30;;;;;;;;;;5035112;28;20178;-66
2022/11/18 01:43:14;;;;;;;9.97;4.70;;;;;;;;;;5036329;28;20348;-63
2022/11/18 01:45:42;;;;;;;7.57;4.73;;;;;;;;;;5036622;28;20172;-64
2022/11/18 01:48:10;;;;;;;7.60;4.30;;;;;;;;;;5035017;28;20191;-65
2022/11/18 01:50:38;;;;;;;11.67;5.20;;;;;;;;;;5034976;28;20211;-64
2022/11/18 01:53:07;;;;;;;8.87;4.93;;;;;;;;;;5036174;28;20203;-67
2022/11/18 01:55:34;;;;;;;9.37;4.77;;;;;;;;;;5036025;28;20651;-67
2022/11/18 01:58:03;;;;;;;11.27;4.37;;;;;;;;;;5035939;28;20209;-68
2022/11/18 02:00:29;;;;;;;6.00;4.20;;;;;;;;;;5036021;28;20185;-67
2022/11/18 02:02:56;;;;;;;7.90;4.87;;;;;;;;;;5035180;28;20664;-66
2022/11/18 02:05:22;;;;;;;13.77;5.60;;;;;;;;;;5035872;28;20214;-66
2022/11/18 02:07:48;;;;;;;10.13;5.60;;;;;;;;;;5036036;28;20179;-67
2022/11/18 02:10:19;;;;;;;8.30;4.70;;;;;;;;;;5034681;28;20187;-68
2022/11/18 02:12:45;;;;;;;9.47;4.57;;;;;;;;;;5034455;28;20680;-67
2022/11/18 02:15:11;;;;;;;8.53;4.67;;;;;;;;;;5036270;28;20187;-66
2022/11/18 02:17:47;;;;;;;9.23;4.70;;;;;;;;;;5035745;28;20318;-69
2022/11/18 02:20:16;;;;;;;8.50;4.20;;;;;;;;;;5034351;28;20648;-69
2022/11/18 02:23:04;;;;;;;8.50;4.53;;;;;;;;;;5034199;28;20302;-68
2022/11/18 02:25:35;;;;;;;8.60;4.40;;;;;;;;;;5035199;28;20172;-67
2022/11/18 02:28:07;;;;;;;10.80;4.80;;;;;;;;;;5034290;28;20175;-68
2022/11/18 02:30:36;;;;;;;11.57;4.80;;;;;;;;;;5034381;28;20183;-68
2022/11/18 02:33:05;;;;;;;10.03;4.67;;;;;;;;;;5035580;28;20207;-68
2022/11/18 02:35:51;;;;;;;10.20;5.27;;;;;;;;;;5034287;28;20194;-68
2022/11/18 02:38:24;;;;;;;8.70;4.30;;;;;;;;;;5034065;28;20191;-68
2022/11/18 02:40:53;;;;;;;12.27;4.57;;;;;;;;;;5034002;28;20186;-68
2022/11/18 02:43:28;;;;;;;12.43;5.23;;;;;;;;;;5035175;28;20238;-68
2022/11/18 02:45:58;;;;;;;10.70;4.63;;;;;;;;;;5035172;28;20608;-68
2022/11/18 02:48:25;;;;;;;13.43;4.90;;;;;;;;;;5033936;28;20247;-69
2022/11/18 02:50:52;;;;;;;9.70;5.27;;;;;;;;;;5034018;28;20202;-68
2022/11/18 02:53:19;;;;;;;8.30;4.53;;;;;;;;;;5033730;28;20615;-66
2022/11/18 02:55:46;;;;;;;9.90;5.03;;;;;;;;;;5033659;28;20182;-67
2022/11/18 02:58:12;;;;;;;14.27;4.80;;;;;;;;;;5035099;28;20256;-68
2022/11/18 03:00:38;;;;;;;11.03;4.80;;;;;;;;;;5035109;28;20171;-67
2022/11/18 03:03:23;;;;;;;12.17;5.23;;;;;;;;;;5033573;28;20226;-68
2022/11/18 03:05:53;;;;;;;15.20;5.47;;;;;;;;;;5034819;28;20647;-67
2022/11/18 03:08:22;;;;;;;12.87;5.27;;;;;;;;;;5033494;28;20232;-67
2022/11/18 03:10:52;;;;;;;11.90;5.67;;;;;;;;;;5034947;28;20183;-68
2022/11/18 03:13:23;;;;;;;14.40;5.30;;;;;;;;;;5034870;28;20203;-68
2022/11/18 03:15:52;;;;;;;12.93;6.13;;;;;;;;;;5034673;28;20171;-68
2022/11/18 03:18:51;;;;;;;13.90;5.47;;;;;;;;;;5033369;28;20187;-68
2022/11/18 03:21:31;;;;;;;6.97;5.27;;;;;;;;;;4990437;28;20245;-68
2022/11/18 03:24:01;;;;;;;13.23;6.30;;;;;;;;;;5034559;28;20163;-68
2022/11/18 03:26:30;;;;;;;14.43;5.80;;;;;;;;;;5033147;28;20273;-71
2022/11/18 03:28:56;;;;;;;15.23;5.97;;;;;;;;;;5034619;28;20182;-68
2022/11/18 03:31:25;;;;;;;14.83;5.73;;;;;;;;;;5034496;28;20179;-68
2022/11/18 03:33:58;;;;;;;12.13;5.70;;;;;;;;;;5035167;28;20632;-68
2022/11/18 03:36:27;;;;;;;11.83;6.43;;;;;;;;;;5034188;28;20206;-68
2022/11/18 03:38:54;;;;;;;11.07;5.53;;;;;;;;;;5033993;28;20274;-67
2022/11/18 03:41:21;;;;;;;11.00;6.43;;;;;;;;;;5034888;28;20306;-68
2022/11/18 03:43:49;;;;;;;16.40;6.50;;;;;;;;;;5033123;28;20198;-68
2022/11/18 03:46:16;;;;;;;13.30;7.27;;;;;;;;;;5032847;28;20236;-68
2022/11/18 03:48:54;;;;;;;17.07;7.13;;;;;;;;;;5034373;28;20175;-68
2022/11/18 03:51:25;;;;;;;19.33;8.50;;;;;;;;;;5034438;28;20178;-68
2022/11/18 03:53:54;;;;;;;10.63;8.10;;;;;;;;;;5032859;28;20320;-68
2022/11/18 03:56:22;;;;;;;16.33;8.97;;;;;;;;;;5033929;28;20207;-68
2022/11/18 03:58:55;;;;;;;10.53;7.23;;;;;;;;;;5034526;28;20177;-68
2022/11/18 04:01:24;;;;;;;17.83;7.10;;;;;;;;;;5033539;28;20260;-68
2022/11/18 04:03:50;;;;;;;12.03;5.87;;;;;;;;;;5032562;28;20233;-68
2022/11/18 04:06:24;;;;;;;13.47;6.73;;;;;;;;;;5034022;28;20183;-68
2022/11/18 04:08:53;;;;;;;12.33;6.60;;;;;;;;;;5033878;28;20178;-68
2022/11/18 04:14:09;;;;;;;16.67;8.67;;;;;;;;;;5033841;28;20282;-68
2022/11/18 04:16:44;;;;;;;13.17;7.10;;;;;;;;;;5033867;28;20556;-68
2022/11/18 04:19:10;;;;;;;12.97;6.93;;;;;;;;;;5033822;28;20525;-68
2022/11/18 04:21:36;;;;;;;12.03;7.50;;;;;;;;;;5032109;28;20182;-68
2022/11/18 04:24:02;;;;;;;18.90;7.60;;;;;;;;;;5032187;28;20198;-67
2022/11/18 04:26:30;;;;;;;14.83;7.30;;;;;;;;;;5033373;28;20270;-67
2022/11/18 04:28:56;;;;;;;13.10;7.07;;;;;;;;;;5033532;28;20659;-68
2022/11/18 04:31:22;;;;;;;10.63;7.27;;;;;;;;;;5033291;28;20190;-67
2022/11/18 04:33:48;;;;;;;14.00;7.43;;;;;;;;;;5032137;28;20183;-67
2022/11/18 04:36:14;;;;;;;11.13;7.27;;;;;;;;;;5031940;28;20647;-67
2022/11/18 04:38:40;;;;;;;14.90;7.60;;;;;;;;;;5033436;28;20273;-68
2022/11/18 04:41:06;;;;;;;11.77;7.23;;;;;;;;;;5033490;28;20643;-68
2022/11/18 04:43:31;;;;;;;15.07;8.53;;;;;;;;;;5033178;28;20225;-68
2022/11/18 04:45:57;;;;;;;12.97;8.00;;;;;;;;;;5033322;28;20179;-68
2022/11/18 04:48:23;;;;;;;16.30;9.10;;;;;;;;;;5032106;28;20189;-67
2022/11/18 04:50:49;;;;;;;18.77;9.53;;;;;;;;;;5033198;28;20191;-68
2022/11/18 04:53:15;;;;;;;17.00;9.47;;;;;;;;;;5033260;28;20241;-68
2022/11/18 04:55:41;;;;;;;16.93;9.33;;;;;;;;;;5033186;28;20178;-68
2022/11/18 04:58:07;;;;;;;14.03;8.93;;;;;;;;;;5032601;28;20713;-68
2022/11/18 05:00:33;;;;;;;15.03;9.17;;;;;;;;;;5033748;28;20172;-69
2022/11/18 05:02:59;;;;;;;15.93;7.30;;;;;;;;;;5033239;28;20253;-69
2022/11/18 05:05:25;;;;;;;13.03;6.70;;;;;;;;;;5032009;28;20599;-69
2022/11/18 05:07:51;;;;;;;16.90;7.30;;;;;;;;;;5031939;28;20674;-68
2022/11/18 05:10:17;;;;;;;17.43;7.17;;;;;;;;;;5031835;28;20643;-68
2022/11/18 05:12:49;;;;;;;18.83;8.27;;;;;;;;;;5032289;28;20238;-68
2022/11/18 05:15:15;;;;;;;17.73;8.40;;;;;;;;;;5037307;28;20189;-68
2022/11/18 05:17:41;;;;;;;21.13;8.17;;;;;;;;;;5035710;28;20560;-69
2022/11/18 05:20:08;;;;;;;21.10;8.87;;;;;;;;;;5037209;28;20261;-68
2022/11/18 05:22:34;;;;;;;23.60;8.27;;;;;;;;;;5036774;28;20254;-68
2022/11/18 05:25:00;;;;;;;20.93;7.53;;;;;;;;;;5036813;28;20265;-68
2022/11/18 05:27:26;;;;;;;19.47;9.50;;;;;;;;;;5035472;28;20183;-68
2022/11/18 05:29:52;;;;;;;21.20;9.90;;;;;;;;;;5035577;28;20198;-68
2022/11/18 05:32:18;;;;;;;23.27;9.40;;;;;;;;;;5036817;28;20656;-70
2022/11/18 05:34:44;;;;;;;35.40;14.97;;;;;;;;;;5036816;28;20214;-68
2022/11/18 05:37:10;;;;;;;24.53;10.13;;;;;;;;;;5035412;28;20214;-68
2022/11/18 05:39:36;;;;;;;18.77;9.43;;;;;;;;;;5035121;28;20175;-68
2022/11/18 05:44:48;;;;;;;24.17;14.20;;;;;;;;;;5036982;28;20248;-68
2022/11/18 05:47:14;;;;;;;22.60;13.07;;;;;;;;;;5035203;28;20179;-68
2022/11/18 05:49:40;;;;;;;19.37;8.30;;;;;;;;;;5036267;28;20189;-69
2022/11/18 05:52:06;;;;;;;24.27;13.00;;;;;;;;;;5036608;28;20241;-65
2022/11/18 05:54:32;;;;;;;22.03;11.67;;;;;;;;;;5034765;28;20190;-65
2022/11/18 05:56:58;;;;;;;25.20;12.13;;;;;;;;;;5035945;28;20649;-65
2022/11/18 05:59:24;;;;;;;16.83;8.73;;;;;;;;;;5034708;28;20670;-65
2022/11/18 06:01:50;;;;;;;12.57;7.10;;;;;;;;;;5035981;28;20205;-65
2022/11/18 06:04:16;;;;;;;17.47;6.33;;;;;;;;;;5036214;28;20254;-65
2022/11/18 06:06:44;;;;;;;17.03;7.00;;;;;;;;;;5034362;28;20219;-65
2022/11/18 06:09:11;;;;;;;15.63;6.23;;;;;;;;;;5034503;28;20613;-65
2022/11/18 06:11:41;;;;;;;11.87;6.27;;;;;;;;;;5036082;28;20557;-65
2022/11/18 06:14:18;;;;;;;18.00;6.77;;;;;;;;;;5035738;28;20191;-65
2022/11/18 06:16:48;;;;;;;15.83;6.07;;;;;;;;;;5034417;28;20682;-65
2022/11/18 06:19:14;;;;;;;18.00;6.50;;;;;;;;;;5035698;28;20175;-65
2022/11/18 06:21:39;;;;;;;12.03;5.90;;;;;;;;;;5034405;28;20191;-66
2022/11/18 06:24:08;;;;;;;11.63;5.90;;;;;;;;;;5035902;28;20282;-65
2022/11/18 06:26:34;;;;;;;15.60;7.33;;;;;;;;;;5035613;28;20330;-66
2022/11/18 06:29:00;;;;;;;17.00;6.80;;;;;;;;;;5035782;28;20683;-65
2022/11/18 06:31:26;;;;;;;11.93;6.00;;;;;;;;;;5035809;28;20263;-65
2022/11/18 06:33:52;;;;;;;14.20;6.03;;;;;;;;;;5034279;28;20182;-65
2022/11/18 06:36:18;;;;;;;15.50;6.17;;;;;;;;;;5034126;28;20194;-65
2022/11/18 06:38:44;;;;;;;13.20;5.93;;;;;;;;;;5034085;28;20178;-65
2022/11/18 06:41:10;;;;;;;13.17;5.73;;;;;;;;;;5034027;28;20183;-65
2022/11/18 06:43:40;;;;;;;11.40;5.30;;;;;;;;;;5035247;28;20211;-65
2022/11/18 06:48:52;;;;;;;12.40;5.30;;;;;;;;;;5035860;28;20202;-65
2022/11/18 06:51:18;;;;;;;12.20;5.30;;;;;;;;;;5034125;28;20175;-65
2022/11/18 06:53:44;;;;;;;14.10;5.43;;;;;;;;;;5035690;28;20218;-64
2022/11/18 06:56:11;;;;;;;9.80;4.70;;;;;;;;;;5035539;28;20175;-63
2022/11/18 06:58:37;;;;;;;11.57;5.17;;;;;;;;;;5036064;28;20175;-65
2022/11/18 07:01:10;;;;;;;9.10;4.20;;;;;;;;;;5034012;28;20175;-65
2022/11/18 07:03:36;;;;;;;8.27;4.13;;;;;;;;;;5034041;28;20570;-65
2022/11/18 07:06:02;;;;;;;7.10;4.37;;;;;;;;;;5034969;28;20179;-65
2022/11/18 07:08:28;;;;;;;11.67;4.60;;;;;;;;;;5034920;28;20670;-65
2022/11/18 07:10:54;;;;;;;17.97;5.03;;;;;;;;;;5034894;28;20725;-65
2022/11/18 07:13:20;;;;;;;13.40;4.60;;;;;;;;;;5034921;28;20676;-65
2022/11/18 07:15:46;;;;;;;8.80;3.97;;;;;;;;;;5034983;28;20652;-66
2022/11/18 07:18:12;;;;;;;9.40;4.13;;;;;;;;;;5034692;28;20742;-65
2022/11/18 07:20:38;;;;;;;7.83;4.37;;;;;;;;;;5033226;28;20206;-66
2022/11/18 07:23:04;;;;;;;9.13;3.90;;;;;;;;;;5034555;28;20195;-64
2022/11/18 07:25:29;;;;;;;6.53;3.90;;;;;;;;;;5034332;28;20186;-65
2022/11/18 07:27:55;;;;;;;8.03;3.90;;;;;;;;;;5034320;28;20727;-64
2022/11/18 07:30:21;;;;;;;9.93;4.20;;;;;;;;;;5033382;28;20647;-65
2022/11/18 07:32:47;;;;;;;10.23;4.40;;;;;;;;;;5034420;28;20199;-66
2022/11/18 07:35:13;;;;;;;8.47;4.33;;;;;;;;;;5032847;28;20195;-65
2022/11/18 07:37:39;;;;;;;6.20;4.23;;;;;;;;;;5033980;28;20202;-65
2022/11/18 07:40:05;;;;;;;12.13;4.67;;;;;;;;;;5033001;28;20179;-65
2022/11/18 07:42:41;;;;;;;10.50;5.23;;;;;;;;;;5032997;28;20691;-66
2022/11/18 07:45:07;;;;;;;9.03;4.77;;;;;;;;;;5034952;28;20166;-65
2022/11/18 07:47:33;;;;;;;10.93;4.87;;;;;;;;;;5034700;28;20187;-68
2022/11/18 07:49:59;;;;;;;10.03;4.70;;;;;;;;;;5033299;28;20183;-66
2022/11/18 07:52:25;;;;;;;11.43;4.90;;;;;;;;;;5033079;28;20210;-65
2022/11/18 07:54:51;;;;;;;15.23;5.93;;;;;;;;;;5032939;28;20176;-65
2022/11/18 07:57:17;;;;;;;13.20;5.73;;;;;;;;;;5033961;28;20238;-65
2022/11/18 07:59:43;;;;;;;13.40;5.07;;;;;;;;;;5034044;28;20254;-65
2022/11/18 08:02:12;;;;;;;10.17;5.13;;;;;;;;;;5058167;22;20235;-70
2022/11/18 08:04:38;;;;;;;10.43;5.27;;;;;;;;;;5015926;28;20229;-70
2022/11/18 08:07:04;;;;;;;13.10;5.10;;;;;;;;;;5015979;28;20195;-70
2022/11/18 08:09:30;;;;;;;6.73;4.90;;;;;;;;;;5033565;28;20648;-70
2022/11/18 08:11:56;;;;;;;12.33;4.97;;;;;;;;;;5033367;28;20199;-70
2022/11/18 08:14:23;;;;;;;9.60;4.77;;;;;;;;;;5034044;28;20202;-70
2022/11/18 08:16:49;;;;;;;9.57;5.10;;;;;;;;;;5033540;28;20205;-70
2022/11/18 08:19:15;;;;;;;8.40;4.70;;;;;;;;;;5033495;28;20182;-70
2022/11/18 08:21:41;;;;;;;13.17;5.23;;;;;;;;;;5015608;28;20203;-70
2022/11/18 08:24:09;;;;;;;13.47;5.17;;;;;;;;;;5033955;28;20535;-70
2022/11/18 08:26:35;;;;;;;13.47;5.57;;;;;;;;;;5033362;28;20206;-70
2022/11/18 08:29:01;;;;;;;10.67;5.27;;;;;;;;;;5033283;28;20179;-70
2022/11/18 08:31:29;;;;;;;8.07;5.43;;;;;;;;;;5033669;28;20199;-69
2022/11/18 08:33:56;;;;;;;11.70;5.30;;;;;;;;;;5015636;28;20187;-70
2022/11/18 08:36:22;;;;;;;11.70;5.20;;;;;;;;;;5033337;28;20206;-70
2022/11/18 08:38:49;;;;;;;9.43;5.50;;;;;;;;;;5015825;28;20588;-70
2022/11/18 08:41:28;;;;;;;8.97;5.20;;;;;;;;;;5015517;28;20207;-70
2022/11/18 08:43:53;;;;;;;8.23;5.17;;;;;;;;;;5015695;28;20279;-70
2022/11/18 08:46:19;;;;;;;7.57;4.50;;;;;;;;;;5033686;28;20209;-70
2022/11/18 08:48:45;;;;;;;9.43;4.87;;;;;;;;;;5035215;28;20179;-69
2022/11/18 08:51:12;;;;;;;10.20;5.10;;;;;;;;;;5019405;28;20276;-69
2022/11/18 08:53:38;;;;;;;8.73;4.80;;;;;;;;;;5037522;28;20190;-70
2022/11/18 08:56:05;;;;;;;8.27;4.93;;;;;;;;;;5037441;28;20183;-70
2022/11/18 08:58:30;;;;;;;9.73;5.17;;;;;;;;;;5037293;28;20263;-70
2022/11/18 09:00:56;;;;;;;15.53;6.03;;;;;;;;;;5037421;28;20297;-71
2022/11/18 09:03:23;;;;;;;8.53;4.60;;;;;;;;;;5037311;28;20189;-70
2022/11/18 09:05:49;;;;;;;10.60;5.63;;;;;;;;;;5019243;28;20771;-70
2022/11/18 09:08:15;;;;;;;11.23;5.30;;;;;;;;;;5037090;28;20207;-70
2022/11/18 09:10:41;;;;;;;8.17;4.90;;;;;;;;;;5037062;28;20233;-70
2022/11/18 09:13:07;;;;;;;9.47;5.40;;;;;;;;;;5036967;28;20179;-69
2022/11/18 09:15:33;;;;;;;8.63;5.77;;;;;;;;;;5036830;28;20214;-70
2022/11/18 09:17:59;;;;;;;11.47;6.10;;;;;;;;;;5018945;28;20234;-70
2022/11/18 09:20:25;;;;;;;10.57;5.37;;;;;;;;;;5037048;28;20600;-70
2022/11/18 09:22:51;;;;;;;12.13;6.30;;;;;;;;;;5036724;28;20190;-70
2022/11/18 09:25:17;;;;;;;9.53;5.13;;;;;;;;;;5036885;28;20285;-70
2022/11/18 09:27:43;;;;;;;9.63;5.60;;;;;;;;;;5019215;28;20179;-70
2022/11/18 09:30:09;;;;;;;10.57;5.10;;;;;;;;;;5018917;28;20194;-70
2022/11/18 09:32:35;;;;;;;12.50;5.70;;;;;;;;;;5018765;28;20199;-70
2022/11/18 09:35:01;;;;;;;8.80;5.17;;;;;;;;;;5018708;28;20670;-70
2022/11/18 09:37:27;;;;;;;8.40;4.67;;;;;;;;;;5018889;28;20679;-70
2022/11/18 09:39:53;;;;;;;8.40;5.10;;;;;;;;;;5019085;28;20607;-70
2022/11/18 09:42:30;;;;;;;8.53;5.23;;;;;;;;;;5018834;28;20202;-70
2022/11/18 09:45:09;;;;;;;13.77;5.17;;;;;;;;;;5036969;28;20174;-70
2022/11/18 09:47:35;;;;;;;9.50;4.83;;;;;;;;;;5018819;28;20678;-70
2022/11/18 09:50:06;;;;;;;9.13;4.73;;;;;;;;;;5036884;28;20214;-70
2022/11/18 09:52:44;;;;;;;8.40;4.40;;;;;;;;;;5018814;28;20252;-70
2022/11/18 09:55:14;;;;;;;9.63;4.53;;;;;;;;;;5036832;28;20183;-70
2022/11/18 09:57:43;;;;;;;12.53;4.80;;;;;;;;;;5018932;28;20203;-70
2022/11/18 10:00:29;;;;;;;12.30;5.83;;;;;;;;;;5036561;28;20171;-70
2022/11/18 10:03:00;;;;;;;18.20;4.63;;;;;;;;;;5018902;28;20579;-70
2022/11/18 10:05:31;;;;;;;10.43;4.37;;;;;;;;;;5036865;28;20180;-71
2022/11/18 10:08:09;;;;;;;9.53;4.37;;;;;;;;;;5019367;28;20179;-70
2022/11/18 10:10:50;;;;;;;9.17;4.50;;;;;;;;;;5038436;28;20179;-70
2022/11/18 10:13:43;;;;;;;8.67;4.13;;;;;;;;;;5023835;28;20171;-68
2022/11/18 10:16:12;;;;;;;12.87;4.10;;;;;;;;;;5038325;28;20203;-69
2022/11/18 10:18:47;;;;;;;7.20;3.70;;;;;;;;;;5042667;28;20643;-69
2022/11/18 10:21:13;;;;;;;8.23;3.80;;;;;;;;;;5040763;28;20191;-70
2022/11/18 10:23:52;;;;;;;6.77;3.90;;;;;;;;;;5035932;28;20666;-70
2022/11/18 10:26:30;;;;;;;8.83;3.50;;;;;;;;;;5035788;28;20538;-70
2022/11/18 10:28:57;;;;;;;9.90;3.93;;;;;;;;;;5036455;28;20160;-68
2022/11/18 10:31:23;;;;;;;9.80;3.43;;;;;;;;;;5035877;28;20195;-69
2022/11/18 10:33:57;;;;;;;8.90;3.53;;;;;;;;;;5018319;28;20176;-68
2022/11/18 10:36:23;;;;;;;6.27;2.80;;;;;;;;;;5036033;28;20616;-69
2022/11/18 10:39:04;;;;;;;13.17;3.87;;;;;;;;;;5035605;28;20221;-68
2022/11/18 10:41:35;;;;;;;10.03;3.40;;;;;;;;;;5035762;28;20202;-69
2022/11/18 10:44:01;;;;;;;8.23;3.57;;;;;;;;;;5018031;28;20171;-68
2022/11/18 10:46:27;;;;;;;7.97;3.53;;;;;;;;;;5017746;28;20270;-68
2022/11/18 10:49:15;;;;;;;12.63;3.87;;;;;;;;;;5035800;28;20182;-67
2022/11/18 10:51:45;;;;;;;6.47;2.87;;;;;;;;;;5035708;28;20191;-68
2022/11/18 10:54:18;;;;;;;6.57;3.23;;;;;;;;;;5035284;28;20183;-68
2022/11/18 10:56:46;;;;;;;8.60;3.00;;;;;;;;;;5035203;28;20199;-68
2022/11/18 10:59:26;;;;;;;6.70;3.37;;;;;;;;;;5035626;28;20210;-68
2022/11/18 11:01:59;;;;;;;9.07;3.30;;;;;;;;;;5034728;28;20683;-69
2022/11/18 11:04:26;;;;;;;7.60;3.40;;;;;;;;;;5035224;28;20182;-68
2022/11/18 11:06:52;;;;;;;7.37;3.37;;;;;;;;;;5017008;28;20198;-67
2022/11/18 11:09:21;;;;;;;8.10;3.30;;;;;;;;;;5034693;28;20179;-68
2022/11/18 11:12:06;;;;;;;7.73;3.10;;;;;;;;;;5033677;28;20264;-68
2022/11/18 11:14:44;;;;;;;6.90;3.20;;;;;;;;;;5016714;28;20195;-69
2022/11/18 11:17:14;;;;;;;5.73;2.77;;;;;;;;;;5016497;28;20524;-69
2022/11/18 11:19:51;;;;;;;6.33;2.90;;;;;;;;;;5016508;28;20183;-69
2022/11/18 11:22:18;;;;;;;9.73;3.50;;;;;;;;;;5034372;28;20253;-69
2022/11/18 11:24:44;;;;;;;6.47;2.83;;;;;;;;;;5016577;28;20175;-69
2022/11/18 11:27:28;;;;;;;4.83;2.67;;;;;;;;;;5034326;28;20182;-69
2022/11/18 11:29:57;;;;;;;8.53;3.20;;;;;;;;;;5016689;28;20186;-69
2022/11/18 11:32:46;;;;;;;8.70;3.63;;;;;;;;;;5034145;28;20683;-69
2022/11/18 11:35:16;;;;;;;6.23;2.90;;;;;;;;;;4980687;28;20202;-69
2022/11/18 11:37:59;;;;;;;8.37;3.17;;;;;;;;;;5016412;28;20195;-69
2022/11/18 11:40:38;;;;;;;6.50;3.30;;;;;;;;;;5034022;28;20171;-69
2022/11/18 11:43:17;;;;;;;13.30;3.50;;;;;;;;;;5016640;28;20187;-69
2022/11/18 11:46:00;;;;;;;11.40;3.27;;;;;;;;;;5034194;28;20160;-69
2022/11/18 11:48:58;;;;;;;11.53;3.70;;;;;;;;;;5034212;28;20174;-70
2022/11/18 11:51:24;;;;;;;10.73;3.60;;;;;;;;;;5018253;28;20306;-69
2022/11/18 11:53:56;;;;;;;10.50;3.30;;;;;;;;;;5016498;28;20262;-70
2022/11/18 11:56:31;;;;;;;10.27;3.10;;;;;;;;;;5033958;28;20203;-69
2022/11/18 11:59:05;;;;;;;11.10;3.50;;;;;;;;;;5034018;28;20198;-69
2022/11/18 12:01:31;;;;;;;10.03;3.77;;;;;;;;;;5033404;28;20215;-69
2022/11/18 12:04:15;;;;;;;9.10;3.43;;;;;;;;;;5033853;28;20206;-69
2022/11/18 12:06:44;;;;;;;7.73;2.90;;;;;;;;;;5033806;28;20186;-69
2022/11/18 12:09:26;;;;;;;9.37;3.43;;;;;;;;;;5033939;28;20179;-69
2022/11/18 12:11:55;;;;;;;14.30;3.53;;;;;;;;;;5033897;28;20213;-69
2022/11/18 12:14:34;;;;;;;8.27;3.03;;;;;;;;;;5033781;28;20265;-69
2022/11/18 12:17:06;;;;;;;9.10;2.93;;;;;;;;;;5015686;28;20220;-69
2022/11/18 12:19:36;;;;;;;6.83;2.77;;;;;;;;;;5015712;28;20595;-69
2022/11/18 12:22:04;;;;;;;4.97;3.00;;;;;;;;;;5033432;28;20202;-69
2022/11/18 12:24:35;;;;;;;7.50;2.70;;;;;;;;;;5033540;28;20627;-69
2022/11/18 12:27:01;;;;;;;9.17;2.77;;;;;;;;;;5033550;28;20171;-69
2022/11/18 12:29:31;;;;;;;8.97;2.50;;;;;;;;;;5015446;28;20247;-69
2022/11/18 12:32:01;;;;;;;12.20;2.90;;;;;;;;;;5033339;28;20258;-69
2022/11/18 12:34:29;;;;;;;13.07;2.87;;;;;;;;;;5033211;28;20560;-69
2022/11/18 12:36:56;;;;;;;11.83;3.30;;;;;;;;;;5033018;28;20285;-69
2022/11/18 12:39:25;;;;;;;8.03;2.80;;;;;;;;;;5033408;28;20218;-69
2022/11/18 12:44:38;;;;;;;9.20;2.90;;;;;;;;;;5033468;28;20229;-69
2022/11/18 12:47:04;;;;;;;7.57;2.77;;;;;;;;;;5015193;28;20623;-69
2022/11/18 12:49:30;;;;;;;7.97;3.30;;;;;;;;;;5033272;28;20202;-69
2022/11/18 12:52:00;;;;;;;7.00;2.63;;;;;;;;;;5015098;28;20205;-69
2022/11/18 12:54:43;;;;;;;8.40;2.97;;;;;;;;;;5032971;28;20232;-69
2022/11/18 12:57:20;;;;;;;7.83;2.90;;;;;;;;;;5032943;28;20202;-69
2022/11/18 12:59:46;;;;;;;10.97;3.03;;;;;;;;;;5015258;28;20253;-68
2022/11/18 13:02:12;;;;;;;7.33;2.60;;;;;;;;;;5014978;28;20707;-69
2022/11/18 13:04:38;;;;;;;9.50;2.87;;;;;;;;;;5032944;28;20593;-69
2022/11/18 13:07:05;;;;;;;14.10;2.90;;;;;;;;;;5033227;28;20643;-69
2022/11/18 13:09:33;;;;;;;12.10;3.57;;;;;;;;;;5032950;28;20190;-69
2022/11/18 13:12:11;;;;;;;10.37;3.23;;;;;;;;;;5032908;28;20232;-69
2022/11/18 13:17:57;;;;;;;10.70;3.17;;;;;;;;;;5032867;28;20574;-69
2022/11/18 13:20:34;;;;;;;9.13;2.70;;;;;;;;;;5032962;28;20160;-70
2022/11/18 13:25:47;;;;;;;9.53;2.90;;;;;;;;;;5033015;28;20198;-69
2022/11/18 13:28:22;;;;;;;10.53;3.30;;;;;;;;;;5032672;28;20179;-69
2022/11/18 13:30:53;;;;;;;10.47;3.73;;;;;;;;;;5032628;28;20197;-69
2022/11/18 13:33:19;;;;;;;13.50;4.37;;;;;;;;;;5033012;28;20167;-69
2022/11/18 13:35:45;;;;;;;12.07;3.63;;;;;;;;;;5018296;28;20647;-70
2022/11/18 13:38:20;;;;;;;9.07;3.90;;;;;;;;;;5036318;28;20198;-69
2022/11/18 13:41:02;;;;;;;8.10;3.63;;;;;;;;;;5036149;28;20174;-69
2022/11/18 13:43:28;;;;;;;10.30;3.17;;;;;;;;;;5036847;28;20163;-69
2022/11/18 13:45:55;;;;;;;12.23;3.20;;;;;;;;;;5036305;28;20318;-70
2022/11/18 13:48:21;;;;;;;8.40;3.47;;;;;;;;;;5018337;28;20535;-69
2022/11/18 13:50:51;;;;;;;7.33;3.00;;;;;;;;;;5018154;28;20273;-69
2022/11/18 13:53:20;;;;;;;9.13;2.70;;;;;;;;;;5036649;28;20256;-69
2022/11/18 13:55:55;;;;;;;6.53;3.23;;;;;;;;;;5036079;28;20175;-69
2022/11/18 13:58:31;;;;;;;13.27;3.03;;;;;;;;;;5018197;28;20203;-69
2022/11/18 14:01:02;;;;;;;10.10;3.33;;;;;;;;;;5017858;28;20210;-69
2022/11/18 14:03:38;;;;;;;5.23;2.73;;;;;;;;;;5018327;28;20221;-69
2022/11/18 14:06:04;;;;;;;8.37;3.50;;;;;;;;;;5018181;28;20850;-69
2022/11/18 14:08:31;;;;;;;10.63;3.30;;;;;;;;;;5017951;28;20615;-69
2022/11/18 14:10:58;;;;;;;9.70;3.30;;;;;;;;;;5035832;28;20203;-69
2022/11/18 14:13:24;;;;;;;9.47;3.60;;;;;;;;;;5017973;28;20274;-69
2022/11/18 14:15:50;;;;;;;7.47;2.57;;;;;;;;;;5035564;28;20186;-69
2022/11/18 14:18:19;;;;;;;12.63;3.30;;;;;;;;;;5035927;28;20556;-69
2022/11/18 14:20:52;;;;;;;12.90;2.83;;;;;;;;;;5017855;28;20183;-69
2022/11/18 14:23:21;;;;;;;9.80;3.47;;;;;;;;;;5017801;28;20270;-69
2022/11/18 14:25:47;;;;;;;7.53;3.70;;;;;;;;;;5035583;28;20207;-69
2022/11/18 14:28:16;;;;;;;13.90;3.30;;;;;;;;;;5017626;28;20222;-69
2022/11/18 14:30:54;;;;;;;6.37;3.67;;;;;;;;;;5035610;28;20663;-68
2022/11/18 14:33:21;;;;;;;11.83;4.23;;;;;;;;;;5035952;28;20616;-69
2022/11/18 14:35:49;;;;;;;12.23;4.03;;;;;;;;;;5035271;28;20647;-70
2022/11/18 14:38:28;;;;;;;11.63;4.83;;;;;;;;;;5035474;28;20203;-69
2022/11/18 14:40:55;;;;;;;11.00;4.40;;;;;;;;;;5035146;28;20213;-69
2022/11/18 14:43:21;;;;;;;10.73;4.10;;;;;;;;;;5017282;28;20175;-69
2022/11/18 14:45:47;;;;;;;10.83;4.30;;;;;;;;;;5033829;28;20180;-70
2022/11/18 14:48:15;;;;;;;14.90;4.77;;;;;;;;;;5017547;28;20257;-69
2022/11/18 14:50:41;;;;;;;10.60;4.17;;;;;;;;;;5032642;22;20279;-70
2022/11/18 14:53:08;;;;;;;10.83;4.37;;;;;;;;;;5035308;28;20255;-69
2022/11/18 14:55:35;;;;;;;12.93;4.77;;;;;;;;;;5034141;28;20179;-70
2022/11/18 14:58:01;;;;;;;18.53;12.60;;;;;;;;;;5034019;28;20246;-70
2022/11/18 15:00:27;;;;;;;13.07;8.40;;;;;;;;;;5035356;28;20202;-69
2022/11/18 15:02:53;;;;;;;20.60;14.17;;;;;;;;;;5035149;28;20183;-70
2022/11/18 15:05:19;;;;;;;20.83;11.47;;;;;;;;;;5035352;28;20179;-70
2022/11/18 15:07:45;;;;;;;13.87;7.60;;;;;;;;;;5033976;28;20179;-70
2022/11/18 15:10:13;;;;;;;10.40;7.57;;;;;;;;;;5035104;28;20179;-70